createdAt,value
2023-05-19T00:00:26.106Z,101094.22
2023-05-19T00:02:54.478Z,101080.75
2023-05-19T00:05:23.405Z,101075.28
2023-05-19T00:07:54.903Z,101076.88
2023-05-19T00:10:29.152Z,101067.56
2023-05-19T00:13:04.484Z,101072.78
2023-05-19T00:15:35.855Z,101070.81
2023-05-19T00:18:10.567Z,101073.34
2023-05-19T00:20:40.564Z,101068.88
2023-05-19T00:23:08.965Z,101061.19
2023-05-19T00:25:37.015Z,101050.88
2023-05-19T00:28:05.494Z,101050.06
2023-05-19T00:30:33.753Z,101045.41
2023-05-19T00:33:04.297Z,101051.38
2023-05-19T00:35:37.148Z,101049.38
2023-05-19T00:38:13.435Z,101054.38
2023-05-19T00:40:46.772Z,101054.88
2023-05-19T00:43:23.264Z,101053.97
2023-05-19T00:45:56.611Z,101054.38
2023-05-19T00:48:26.078Z,101055.50
2023-05-19T00:51:06.270Z,101058.72
2023-05-19T00:53:37.564Z,101054.03
2023-05-19T00:56:13.613Z,101055.00
2023-05-19T00:58:55.292Z,101057.69
2023-05-19T01:01:23.716Z,101047.41
2023-05-19T01:03:59.365Z,101061.78
2023-05-19T01:06:35.623Z,101062.69
2023-05-19T01:09:06.996Z,101060.03
2023-05-19T01:11:41.359Z,101055.97
2023-05-19T01:14:16.178Z,101064.44
2023-05-19T01:16:50.552Z,101058.53
2023-05-19T01:19:22.513Z,101059.25
2023-05-19T01:22:02.324Z,101055.63
2023-05-19T01:24:49.484Z,101059.00
2023-05-19T01:27:17.935Z,101058.16
2023-05-19T01:30:05.601Z,101053.81
2023-05-19T01:32:41.742Z,101064.41
2023-05-19T01:35:17.386Z,101047.41
2023-05-19T01:37:49.929Z,101047.75
2023-05-19T01:40:19.372Z,101041.31
2023-05-19T01:42:57.883Z,101039.91
2023-05-19T01:45:34.402Z,101046.03
2023-05-19T01:48:03.627Z,101050.09
2023-05-19T01:50:36.893Z,101040.75
2023-05-19T01:53:10.810Z,101044.13
2023-05-19T01:55:47.500Z,101042.81
2023-05-19T01:58:17.952Z,101037.88
2023-05-19T02:00:57.706Z,101044.31
2023-05-19T02:03:48.654Z,101037.69
2023-05-19T02:06:37.655Z,101049.38
2023-05-19T02:09:14.923Z,101042.09
2023-05-19T02:12:12.447Z,101050.19
2023-05-19T02:14:46.263Z,101043.78
2023-05-19T02:17:26.198Z,101044.84
2023-05-19T02:19:57.095Z,101039.16
2023-05-19T02:22:27.533Z,101047.56
2023-05-19T02:25:02.812Z,101040.41
2023-05-19T02:28:09.277Z,101043.81
2023-05-19T02:31:14.342Z,101050.03
2023-05-19T02:34:12.466Z,101050.94
2023-05-19T02:36:48.157Z,101049.47
2023-05-19T02:39:28.580Z,101040.44
2023-05-19T02:42:33.343Z,101039.63
2023-05-19T02:45:14.565Z,101046.44
2023-05-19T02:47:59.110Z,101047.72
2023-05-19T02:50:49.749Z,101041.94
2023-05-19T02:53:35.566Z,101042.66
2023-05-19T02:56:21.286Z,101043.34
2023-05-19T02:59:07.908Z,101036.66
2023-05-19T03:02:04.678Z,101046.00
2023-05-19T03:04:41.873Z,101040.13
2023-05-19T03:07:35.519Z,101038.66
2023-05-19T03:10:11.803Z,101042.28
2023-05-19T03:12:44.795Z,101039.63
2023-05-19T03:15:23.810Z,101036.19
2023-05-19T03:18:08.547Z,101035.06
2023-05-19T03:20:41.677Z,101039.34
2023-05-19T03:23:16.617Z,101027.44
2023-05-19T03:26:02.384Z,101033.84
2023-05-19T03:29:05.938Z,101030.19
2023-05-19T03:31:42.956Z,101030.22
2023-05-19T03:34:19.457Z,101029.13
2023-05-19T03:40:36.687Z,101032.28
2023-05-19T03:43:12.582Z,101034.81
2023-05-19T03:45:50.251Z,101044.25
2023-05-19T03:49:09.350Z,101034.59
2023-05-19T03:51:45.527Z,101046.09
2023-05-19T03:54:26.490Z,101033.78
2023-05-19T03:56:54.817Z,101042.56
2023-05-19T03:59:24.003Z,101041.44
2023-05-19T04:01:58.243Z,101049.13
2023-05-19T04:04:29.675Z,101048.53
2023-05-19T04:07:02.964Z,101047.97
2023-05-19T04:09:43.038Z,101040.16
2023-05-19T04:12:11.112Z,101044.94
2023-05-19T04:14:42.102Z,101047.31
2023-05-19T04:17:12.572Z,101044.44
2023-05-19T04:19:43.612Z,101049.13
2023-05-19T04:22:21.138Z,101051.81
2023-05-19T04:24:53.284Z,101049.22
2023-05-19T04:27:23.619Z,101056.59
2023-05-19T04:29:59.507Z,101051.63
2023-05-19T04:32:42.561Z,101054.22
2023-05-19T04:35:13.930Z,101052.28
2023-05-19T04:37:41.669Z,101057.06
2023-05-19T04:40:11.362Z,101062.59
2023-05-19T04:42:42.917Z,101064.47
2023-05-19T04:45:15.128Z,101065.75
2023-05-19T04:47:58.202Z,101059.31
2023-05-19T04:50:26.390Z,101060.00
2023-05-19T04:57:26.047Z,101070.13
2023-05-19T05:00:17.588Z,101065.97
2023-05-19T05:03:13.692Z,101068.13
2023-05-19T05:05:49.478Z,101062.84
2023-05-19T05:08:30.380Z,101066.72
2023-05-19T05:10:59.894Z,101073.03
2023-05-19T05:13:36.884Z,101065.59
2023-05-19T05:16:12.388Z,101065.75
2023-05-19T05:39:39.083Z,101068.63
2023-05-19T05:47:20.915Z,101070.38
2023-05-19T05:49:52.173Z,101070.44
2023-05-19T05:53:28.180Z,101070.25
2023-05-19T05:57:11.860Z,101079.91
2023-05-19T06:00:54.417Z,101074.81
2023-05-19T06:36:23.356Z,101092.66
2023-05-19T06:38:57.698Z,101094.34
2023-05-19T06:41:25.822Z,101099.13
2023-05-19T06:43:53.300Z,101098.75
2023-05-19T06:46:22.704Z,101104.25
2023-05-19T06:52:31.468Z,101106.81
2023-05-19T06:55:01.410Z,101094.94
2023-05-19T06:57:28.913Z,101109.44
2023-05-19T06:59:57.022Z,101116.56
2023-05-19T07:02:24.813Z,101114.94
2023-05-19T07:04:54.134Z,101114.94
2023-05-19T07:07:26.824Z,101100.19
2023-05-19T07:09:56.398Z,101106.91
2023-05-19T07:12:24.838Z,101118.19
2023-05-19T07:14:52.973Z,101104.81
2023-05-19T07:17:20.808Z,101107.63
2023-05-19T07:19:50.269Z,101111.66
2023-05-19T07:22:17.683Z,101103.94
2023-05-19T07:24:45.258Z,101107.00
2023-05-19T07:27:12.625Z,101106.97
2023-05-19T07:29:40.236Z,101119.34
2023-05-19T07:32:07.719Z,101106.69
2023-05-19T07:34:35.125Z,101104.25
2023-05-19T07:37:03.517Z,101108.03
2023-05-19T07:39:32.490Z,101101.69
2023-05-19T07:41:59.996Z,101108.19
2023-05-19T07:44:27.430Z,101113.94
2023-05-19T07:46:54.912Z,101115.97
2023-05-19T07:49:22.331Z,101111.28
2023-05-19T07:51:49.964Z,101112.25
2023-05-19T07:54:17.489Z,101117.94
2023-05-19T07:56:44.900Z,101117.38
2023-05-19T07:59:12.442Z,101112.63
2023-05-19T08:01:39.917Z,101112.88
2023-05-19T08:04:09.724Z,101117.72
2023-05-19T08:06:40.281Z,101112.91
2023-05-19T08:09:07.663Z,101116.50
2023-05-19T08:11:35.145Z,101114.94
2023-05-19T08:14:02.785Z,101114.22
2023-05-19T08:16:30.222Z,101123.41
2023-05-19T08:18:57.932Z,101117.28
2023-05-19T08:21:25.375Z,101109.53
2023-05-19T08:23:52.795Z,101116.13
2023-05-19T08:26:20.196Z,101110.53
2023-05-19T08:28:47.678Z,101115.25
2023-05-19T08:31:15.117Z,101111.00
2023-05-19T08:33:42.576Z,101111.94
2023-05-19T08:36:10.201Z,101116.06
2023-05-19T08:38:37.768Z,101113.56
2023-05-19T08:41:06.334Z,101117.00
2023-05-19T08:43:37.376Z,101116.75
2023-05-19T08:46:13.795Z,101120.34
2023-05-19T08:48:42.973Z,101119.25
2023-05-19T08:51:25.444Z,101119.03
2023-05-19T08:53:53.914Z,101129.38
2023-05-19T08:56:22.188Z,101129.50
2023-05-19T08:58:50.371Z,101117.41
2023-05-19T09:01:42.330Z,101121.25
2023-05-19T09:04:10.201Z,101124.88
2023-05-19T09:06:41.279Z,101125.34
2023-05-19T09:09:08.817Z,101127.44
2023-05-19T09:11:37.827Z,101123.88
2023-05-19T09:14:05.440Z,101129.19
2023-05-19T09:16:34.067Z,101125.91
2023-05-19T09:19:01.785Z,101127.31
2023-05-19T09:21:32.827Z,101127.31
2023-05-19T09:24:06.841Z,101126.69
2023-05-19T09:26:40.488Z,101131.81
2023-05-19T09:29:14.630Z,101122.81
2023-05-19T09:31:52.031Z,101127.06
2023-05-19T09:34:19.985Z,101122.91
2023-05-19T09:36:49.670Z,101130.25
2023-05-19T09:39:17.961Z,101141.91
2023-05-19T09:41:45.314Z,101135.56
2023-05-19T09:44:23.315Z,101138.31
2023-05-19T09:46:51.474Z,101131.16
2023-05-19T09:49:21.260Z,101136.94
2023-05-19T09:51:53.783Z,101136.56
2023-05-19T09:54:23.170Z,101135.56
2023-05-19T09:57:00.269Z,101125.97
2023-05-19T09:59:29.929Z,101123.66
2023-05-19T10:02:01.442Z,101127.81
2023-05-19T10:04:29.902Z,101128.91
2023-05-19T10:06:59.921Z,101134.59
2023-05-19T10:09:28.169Z,101134.97
2023-05-19T10:11:58.894Z,101137.47
2023-05-19T10:14:27.156Z,101136.09
2023-05-19T10:16:58.682Z,101121.06
2023-05-19T10:19:27.251Z,101125.47
2023-05-19T10:21:55.009Z,101116.47
2023-05-19T10:24:22.539Z,101128.16
2023-05-19T10:27:03.573Z,101130.31
2023-05-19T10:29:33.391Z,101128.09
2023-05-19T10:32:06.884Z,101125.66
2023-05-19T10:34:57.431Z,101127.34
2023-05-19T10:37:36.911Z,101137.53
2023-05-19T10:40:10.189Z,101129.31
2023-05-19T10:42:58.007Z,101127.41
2023-05-19T10:45:27.825Z,101127.50
2023-05-19T10:47:55.465Z,101128.63
2023-05-19T10:50:23.268Z,101122.13
2023-05-19T10:52:56.785Z,101116.31
2023-05-19T10:55:44.884Z,101116.38
2023-05-19T10:58:12.185Z,101107.16
2023-05-19T11:00:39.866Z,101100.78
2023-05-19T11:03:16.746Z,101114.00
2023-05-19T11:05:46.477Z,101109.34
2023-05-19T11:08:13.811Z,101111.75
2023-05-19T11:10:43.786Z,101111.09
2023-05-19T11:13:18.801Z,101101.94
2023-05-19T11:15:46.669Z,101103.63
2023-05-19T11:18:16.195Z,101105.94
2023-05-19T11:20:44.676Z,101107.31
2023-05-19T11:23:18.056Z,101106.91
2023-05-19T11:25:49.306Z,101113.91
2023-05-19T11:28:20.668Z,101100.84
2023-05-19T11:30:50.797Z,101106.50
2023-05-19T11:33:19.660Z,101095.25
2023-05-19T11:35:49.365Z,101096.47
2023-05-19T11:38:20.044Z,101089.00
2023-05-19T11:40:49.765Z,101094.69
2023-05-19T11:43:17.072Z,101096.94
2023-05-19T11:45:45.048Z,101089.16
2023-05-19T11:48:13.075Z,101085.09
2023-05-19T11:50:42.373Z,101083.19
2023-05-19T11:53:12.383Z,101081.13
2023-05-19T11:56:04.613Z,101084.66
2023-05-19T11:58:32.082Z,101086.84
2023-05-19T12:01:03.766Z,101084.00
2023-05-19T12:03:37.237Z,101083.53
2023-05-19T12:06:26.188Z,101083.78
2023-05-19T12:08:56.509Z,101082.16
2023-05-19T12:11:24.997Z,101080.91
2023-05-19T12:13:55.430Z,101070.88
2023-05-19T12:16:23.174Z,101080.44
2023-05-19T12:18:50.841Z,101077.03
2023-05-19T12:21:18.313Z,101089.88
2023-05-19T12:23:45.754Z,101079.56
2023-05-19T12:26:13.286Z,101075.59
2023-05-19T12:28:44.110Z,101076.84
2023-05-19T12:31:15.252Z,101082.69
2023-05-19T12:33:46.914Z,101077.19
2023-05-19T12:36:15.901Z,101079.06
2023-05-19T12:38:43.657Z,101074.25
2023-05-19T12:41:13.900Z,101078.19
2023-05-19T12:43:41.385Z,101071.78
2023-05-19T12:46:12.323Z,101076.41
2023-05-19T12:48:40.641Z,101078.72
2023-05-19T12:51:08.122Z,101074.63
2023-05-19T12:53:35.482Z,101078.00
2023-05-19T12:56:10.655Z,101076.16
2023-05-19T12:58:39.068Z,101068.16
2023-05-19T13:01:07.786Z,101068.34
2023-05-19T13:04:02.778Z,101069.31
2023-05-19T13:06:33.841Z,101070.16
2023-05-19T13:09:01.207Z,101060.25
2023-05-19T13:11:29.284Z,101067.41
2023-05-19T13:13:57.894Z,101060.66
2023-05-19T13:16:29.596Z,101064.56
2023-05-19T13:18:57.630Z,101070.09
2023-05-19T13:21:25.158Z,101063.78
2023-05-19T13:23:53.459Z,101064.50
2023-05-19T13:26:21.762Z,101060.56
2023-05-19T13:28:49.264Z,101058.34
2023-05-19T13:31:51.882Z,101071.00
2023-05-19T13:34:21.132Z,101070.88
2023-05-19T13:36:49.127Z,101066.06
2023-05-19T13:39:18.899Z,101070.34
2023-05-19T13:41:46.907Z,101061.34
2023-05-19T13:44:14.256Z,101066.66
2023-05-19T13:46:45.535Z,101053.69
2023-05-19T13:49:14.308Z,101060.13
2023-05-19T13:51:42.800Z,101063.88
2023-05-19T13:54:10.390Z,101068.63
2023-05-19T13:56:39.322Z,101069.34
2023-05-19T13:59:06.721Z,101068.50
2023-05-19T14:01:40.162Z,101061.38
2023-05-19T14:04:07.777Z,101070.84
2023-05-19T14:06:35.345Z,101068.94
2023-05-19T14:09:03.202Z,101072.38
2023-05-19T14:11:30.773Z,101073.38
2023-05-19T14:13:59.258Z,101069.13
2023-05-19T14:16:28.927Z,101073.09
2023-05-19T14:18:56.989Z,101070.88
2023-05-19T14:21:24.599Z,101073.97
2023-05-19T14:23:52.020Z,101070.53
2023-05-19T14:26:19.995Z,101071.97
2023-05-19T14:28:47.551Z,101076.72
2023-05-19T14:31:15.344Z,101062.81
2023-05-19T14:33:42.823Z,101066.53
2023-05-19T14:36:10.628Z,101075.06
2023-05-19T14:38:38.061Z,101070.97
2023-05-19T14:41:07.669Z,101071.09
2023-05-19T14:43:35.042Z,101064.88
2023-05-19T14:46:02.527Z,101066.91
2023-05-19T14:48:29.979Z,101068.69
2023-05-19T14:50:57.385Z,101065.06
2023-05-19T14:53:24.760Z,101066.03
2023-05-19T14:55:52.177Z,101068.03
2023-05-19T14:58:27.650Z,101071.59
2023-05-19T15:00:59.583Z,101067.34
2023-05-19T15:03:27.110Z,101069.81
2023-05-19T15:05:54.586Z,101068.63
2023-05-19T15:08:21.974Z,101064.38
2023-05-19T15:10:49.920Z,101061.28
2023-05-19T15:13:19.449Z,101065.69
2023-05-19T15:15:46.738Z,101075.09
2023-05-19T15:18:17.997Z,101057.56
2023-05-19T15:20:46.633Z,101052.19
2023-05-19T15:23:13.926Z,101055.66
2023-05-19T15:25:41.325Z,101056.25
2023-05-19T15:28:08.674Z,101057.38
2023-05-19T15:30:36.169Z,101055.53
2023-05-19T15:33:03.721Z,101054.69
2023-05-19T15:35:32.086Z,101051.22
2023-05-19T15:38:05.289Z,101045.38
2023-05-19T15:40:33.304Z,101042.56
2023-05-19T15:43:01.045Z,101047.47
2023-05-19T15:45:28.475Z,101041.00
2023-05-19T15:47:56.171Z,101042.09
2023-05-19T15:50:23.616Z,101037.34
2023-05-19T15:52:50.858Z,101035.78
2023-05-19T15:55:18.196Z,101042.59
2023-05-19T15:57:46.563Z,101038.78
2023-05-19T16:00:14.160Z,101032.03
2023-05-19T16:02:41.623Z,101030.38
2023-05-19T16:05:09.041Z,101029.16
2023-05-19T16:07:36.417Z,101023.66
2023-05-19T16:10:03.836Z,101026.00
2023-05-19T16:12:31.619Z,101023.97
2023-05-19T16:14:58.996Z,101015.84
2023-05-19T16:17:26.403Z,101014.16
2023-05-19T16:19:53.813Z,101008.63
2023-05-19T16:22:24.645Z,101011.03
2023-05-19T16:25:10.787Z,101010.59
2023-05-19T16:27:38.124Z,101011.66
2023-05-19T16:30:05.775Z,101011.66
2023-05-19T16:32:34.065Z,100994.81
2023-05-19T16:35:01.652Z,101005.16
2023-05-19T16:37:29.032Z,100995.34
2023-05-19T16:39:56.535Z,100995.81
2023-05-19T16:42:23.935Z,100992.09
2023-05-19T16:44:51.280Z,100991.81
2023-05-19T16:47:18.691Z,100986.63
2023-05-19T16:49:46.093Z,100982.59
2023-05-19T16:52:13.393Z,100983.09
2023-05-19T16:54:42.652Z,100981.38
2023-05-19T16:57:10.065Z,100982.44
2023-05-19T16:59:37.287Z,100979.66
2023-05-19T17:02:04.718Z,100979.97
2023-05-19T17:04:32.131Z,100981.72
2023-05-19T17:06:59.558Z,100982.56
2023-05-19T17:09:26.863Z,100985.81
2023-05-19T17:11:54.337Z,100982.44
2023-05-19T17:14:21.670Z,100986.53
2023-05-19T17:16:49.007Z,100982.94
2023-05-19T17:19:16.964Z,100973.84
2023-05-19T17:21:44.360Z,100979.19
2023-05-19T17:24:11.871Z,100974.50
2023-05-19T17:26:39.299Z,100974.91
2023-05-19T17:29:06.564Z,100967.81
2023-05-19T17:31:33.907Z,100972.22
